Airfield :
LOGIN :

Register | Disclaimer

   EN    FR    IT 

 










Legend :    VFR   Marginal VFR   IFR   Intensive IFR   Very Intensive IFR
Visi :
Ceiling :
>= 8 km
>= 3000ft
5 to 8 km
1000 to 3000 ft
1500m to 5 km
500 to 1000 ft
800 to 1500m
200 to 500 ft
< 800m
< 200 ft
Symbols :   Thunderstorms  Fog  Heavy snow  Heavy precipitations  Wind > 20 kt
SIGMETs :     Misc.  Thunderstorms  Icing  Turbulence  Mountain Waves  Volcanic Ashes






- Airport Elevation : 1708 ft
- IATA code : SJJ


LQSA - Sarajevo

CURRENT METAR :
  • 152100Z 13013KT 090V150 9999 BKN055 16/06 Q1012 WS ALL RWY NOSIG

EXPIRED METARs :
  • 152030Z 13019KT 9999 BKN060 16/05 Q1012 WS ALL RWY NOSIG
  • 152000Z 14016G27KT 9999 BKN060 16/04 Q1012 WS ALL RWY NOSIG
  • 151930Z 15020G39KT 100V180 9999 SCT060 16/05 Q1012 WS ALL RWY NOSIG
  • 151900Z 14011KT 100V190 9999 SCT060 16/06 Q1011 WS ALL RWY NOSIG
  • 151830Z 14020G33KT 120V200 9999 SCT060 16/05 Q1011 WS ALL RWY NOSIG

TAF TAF LQSA
Valid from the 15 at 18:00 until the 16 at 18:00 UTC


151700Z 1518/1618 15018G35KT 9999 BKN050 TX17/1612Z TN11/1618Z
PROB40
TEMPO 1518/1612 15025G37KT
BECMG 1613/1615 13008KT
TEMPO 1613/1618 13012G22KT



MET'MAP, your aeronautical weather chart ! - Copyright ORBIFLY December 2007 - Disclaimer

ORBIFLY MET'MAP TEAM :

Programming & Development : Alexandra Zaïnal
Concept & Development : Baudouin d'Aumeries
Co-Development & Prog : Marc-Olivier Méhu
Technical & hardware support : Manuel Goepfert

Contact : metmap@orbifly.com




SOURCES & CREDITS :

   NOAA